createdAt,value
2018-03-18T00:04:52.854Z,61
2018-03-18T00:10:19.757Z,61
2018-03-18T00:15:47.606Z,61
2018-03-18T00:21:15.537Z,61
2018-03-18T00:26:43.396Z,61
2018-03-18T00:32:10.337Z,61
2018-03-18T00:37:38.173Z,61
2018-03-18T00:43:05.013Z,61
2018-03-18T00:48:32.875Z,61
2018-03-18T00:53:59.773Z,61
2018-03-18T00:59:26.612Z,61
2018-03-18T01:04:53.521Z,61
2018-03-18T01:10:21.348Z,61
2018-03-18T01:15:48.221Z,61
2018-03-18T01:21:15.116Z,61
2018-03-18T01:26:42.035Z,61
2018-03-18T01:32:08.885Z,61
2018-03-18T01:37:36.757Z,61
2018-03-18T01:43:04.682Z,60
2018-03-18T01:48:32.527Z,60
2018-03-18T01:53:59.430Z,60
2018-03-18T01:59:26.580Z,60
2018-03-18T02:04:53.310Z,60
2018-03-18T02:10:20.144Z,60
2018-03-18T02:15:47.035Z,60
2018-03-18T02:21:13.939Z,60
2018-03-18T02:26:40.856Z,60
2018-03-18T02:32:08.708Z,60
2018-03-18T02:37:36.610Z,60
2018-03-18T02:43:03.515Z,60
2018-03-18T02:48:31.679Z,59
2018-03-18T02:53:59.300Z,59
2018-03-18T02:59:27.205Z,59
2018-03-18T03:04:55.050Z,59
2018-03-18T03:10:22.921Z,59
2018-03-18T03:15:50.759Z,59
2018-03-18T03:21:18.604Z,59
2018-03-18T03:26:46.485Z,58
2018-03-18T03:32:13.406Z,58
2018-03-18T03:37:40.164Z,58
2018-03-18T03:43:08.079Z,58
2018-03-18T03:48:36.043Z,58
2018-03-18T03:54:02.849Z,58
2018-03-18T03:59:29.704Z,58
2018-03-18T04:04:56.554Z,58
2018-03-18T04:10:24.619Z,58
2018-03-18T04:15:51.286Z,58
2018-03-18T04:21:18.164Z,58
2018-03-18T04:26:46.033Z,58
2018-03-18T04:32:12.876Z,58
2018-03-18T04:37:40.756Z,58
2018-03-18T04:43:07.584Z,58
2018-03-18T04:48:35.438Z,58
2018-03-18T04:54:02.325Z,58
2018-03-18T04:59:30.304Z,58
2018-03-18T05:04:58.271Z,58
2018-03-18T05:10:24.861Z,58
2018-03-18T05:15:52.687Z,58
2018-03-18T05:21:19.520Z,58
2018-03-18T05:26:46.402Z,58
2018-03-18T05:32:13.304Z,58
2018-03-18T05:37:40.064Z,58
2018-03-18T05:43:07.965Z,58
2018-03-18T05:48:34.764Z,58
2018-03-18T05:54:02.544Z,58
2018-03-18T05:59:30.441Z,58
2018-03-18T06:04:57.425Z,58
2018-03-18T06:10:24.263Z,58
2018-03-18T06:15:51.858Z,58
2018-03-18T06:21:19.696Z,58
2018-03-18T06:26:47.497Z,58
2018-03-18T06:32:15.332Z,58
2018-03-18T06:37:42.195Z,58
2018-03-18T06:43:10.004Z,58
2018-03-18T06:48:37.864Z,58
2018-03-18T06:54:05.718Z,58
2018-03-18T06:59:33.557Z,58
2018-03-18T07:05:00.448Z,58
2018-03-18T07:10:27.305Z,58
2018-03-18T07:15:55.128Z,58
2018-03-18T07:21:22.052Z,57
2018-03-18T07:26:48.888Z,57
2018-03-18T07:32:15.741Z,57
2018-03-18T07:37:42.594Z,57
2018-03-18T07:43:09.739Z,57
2018-03-18T07:48:37.402Z,57
2018-03-18T07:54:05.304Z,57
2018-03-18T07:59:33.177Z,57
2018-03-18T08:05:00.118Z,57
2018-03-18T08:10:27.972Z,57
2018-03-18T08:15:54.892Z,57
2018-03-18T08:21:22.815Z,57
2018-03-18T08:26:50.838Z,57
2018-03-18T08:32:18.626Z,56
2018-03-18T08:37:45.562Z,56
2018-03-18T08:43:12.736Z,56
2018-03-18T08:48:40.446Z,56
2018-03-18T08:54:07.383Z,56
2018-03-18T08:59:34.374Z,56
2018-03-18T09:05:01.695Z,56
2018-03-18T09:10:29.291Z,56
2018-03-18T09:15:57.279Z,56
2018-03-18T09:21:25.263Z,56
2018-03-18T09:26:52.288Z,56
2018-03-18T09:32:20.313Z,56
2018-03-18T09:37:48.292Z,56
2018-03-18T09:43:16.328Z,56
2018-03-18T09:48:44.380Z,56
2018-03-18T09:54:12.452Z,56
2018-03-18T09:59:40.544Z,56
2018-03-18T10:05:07.627Z,55
2018-03-18T10:10:35.762Z,56
2018-03-18T10:16:03.766Z,56
2018-03-18T10:21:31.820Z,56
2018-03-18T10:26:59.836Z,55
2018-03-18T10:32:26.849Z,55
2018-03-18T10:37:53.876Z,55
2018-03-18T10:43:20.912Z,55
2018-03-18T10:48:48.961Z,54
2018-03-18T10:54:16.017Z,54
2018-03-18T10:59:43.094Z,54
2018-03-18T11:05:10.224Z,55
2018-03-18T11:10:38.415Z,54
2018-03-18T11:16:06.535Z,54
2018-03-18T11:21:34.619Z,54
2018-03-18T11:27:01.763Z,54
2018-03-18T11:32:28.918Z,54
2018-03-18T11:37:56.070Z,54
2018-03-18T11:43:23.340Z,54
2018-03-18T11:48:50.371Z,54
2018-03-18T11:54:17.756Z,54
2018-03-18T11:59:45.777Z,54
2018-03-18T12:05:14.108Z,55
2018-03-18T12:10:42.617Z,55
2018-03-18T12:16:10.056Z,55
2018-03-18T12:21:38.438Z,54
2018-03-18T12:27:06.930Z,55
2018-03-18T12:32:34.431Z,54
2018-03-18T12:38:03.046Z,54
2018-03-18T12:43:30.533Z,54
2018-03-18T12:48:58.099Z,53
2018-03-18T12:54:26.620Z,53
2018-03-18T12:59:54.322Z,53
2018-03-18T13:05:22.861Z,52
2018-03-18T13:10:50.513Z,52
2018-03-18T13:16:19.017Z,52
2018-03-18T13:21:46.663Z,52
2018-03-18T13:27:14.454Z,52
2018-03-18T13:32:43.021Z,52
2018-03-18T13:38:10.790Z,52
2018-03-18T13:43:38.580Z,51
2018-03-18T13:49:06.188Z,51
2018-03-18T13:54:33.977Z,51
2018-03-18T14:00:02.720Z,51
2018-03-18T14:05:30.268Z,51
2018-03-18T14:10:58.958Z,51
2018-03-18T14:16:26.477Z,50
2018-03-18T14:21:56.142Z,49
2018-03-18T14:27:22.841Z,49
2018-03-18T14:32:50.568Z,49
2018-03-18T14:38:19.382Z,48
2018-03-18T14:43:47.365Z,48
2018-03-18T14:49:15.382Z,49
2018-03-18T14:54:43.415Z,49
2018-03-18T15:00:11.474Z,49
2018-03-18T15:05:40.561Z,49
2018-03-18T15:11:09.533Z,49
2018-03-18T15:16:37.491Z,48
2018-03-18T15:22:05.497Z,47
2018-03-18T15:27:34.365Z,47
2018-03-18T15:33:03.289Z,47
2018-03-18T15:38:32.183Z,47
2018-03-18T15:43:59.788Z,47
2018-03-18T15:49:28.257Z,46
2018-03-18T15:54:56.773Z,46
2018-03-18T16:00:24.948Z,45
2018-03-18T16:05:52.255Z,45
2018-03-18T16:11:20.549Z,45
2018-03-18T16:16:47.722Z,45
2018-03-18T16:22:14.893Z,45
2018-03-18T16:27:43.322Z,45
2018-03-18T16:33:11.191Z,46
2018-03-18T16:38:39.568Z,46
2018-03-18T16:44:06.426Z,46
2018-03-18T16:49:33.603Z,46
2018-03-18T16:55:00.636Z,46
2018-03-18T17:00:28.730Z,46
2018-03-18T17:05:56.785Z,47
2018-03-18T17:11:23.871Z,47
2018-03-18T17:16:52.078Z,47
2018-03-18T17:22:19.012Z,47
2018-03-18T17:27:46.095Z,48
2018-03-18T17:33:13.128Z,48
2018-03-18T17:38:40.199Z,48
2018-03-18T17:44:07.184Z,48
2018-03-18T17:49:34.194Z,49
2018-03-18T17:55:01.368Z,49
2018-03-18T18:00:28.297Z,49
2018-03-18T18:05:56.558Z,49
2018-03-18T18:11:23.354Z,50
2018-03-18T18:16:50.517Z,50
2018-03-18T18:22:17.516Z,50
2018-03-18T18:27:44.529Z,51
2018-03-18T18:33:11.527Z,51
2018-03-18T18:38:38.626Z,51
2018-03-18T18:44:05.682Z,51
2018-03-18T18:49:33.751Z,52
2018-03-18T18:55:01.886Z,52
2018-03-18T19:00:28.812Z,52
2018-03-18T19:05:56.888Z,52
2018-03-18T19:11:23.829Z,52
2018-03-18T19:16:50.867Z,53
2018-03-18T19:22:18.842Z,53
2018-03-18T19:27:45.840Z,53
2018-03-18T19:33:12.915Z,53
2018-03-18T19:38:39.831Z,53
2018-03-18T19:44:07.897Z,53
2018-03-18T19:49:35.885Z,53
2018-03-18T19:55:03.838Z,53
2018-03-18T20:00:30.777Z,54
2018-03-18T20:05:57.759Z,54
2018-03-18T20:11:25.840Z,54
2018-03-18T20:16:53.728Z,54
2018-03-18T20:22:20.724Z,54
2018-03-18T20:27:47.744Z,54
2018-03-18T20:33:15.739Z,54
2018-03-18T20:38:42.580Z,55
2018-03-18T20:44:10.540Z,55
2018-03-18T20:49:37.453Z,55
2018-03-18T20:55:04.480Z,55
2018-03-18T21:00:31.365Z,55
2018-03-18T21:05:58.333Z,55
2018-03-18T21:11:26.244Z,56
2018-03-18T21:16:53.218Z,56
2018-03-18T21:22:21.092Z,56
2018-03-18T21:27:49.082Z,56
2018-03-18T21:33:16.398Z,56
2018-03-18T21:38:43.932Z,56
2018-03-18T21:44:11.955Z,57
2018-03-18T21:49:38.784Z,57
2018-03-18T21:55:05.702Z,57
2018-03-18T22:00:33.610Z,57
2018-03-18T22:06:01.589Z,57
2018-03-18T22:06:02.026Z,57
2018-03-18T22:11:29.491Z,58
2018-03-18T22:16:56.386Z,58
2018-03-18T22:22:23.261Z,58
2018-03-18T22:27:51.155Z,58
2018-03-18T22:33:18.077Z,58
2018-03-18T22:38:45.206Z,58
2018-03-18T22:44:12.906Z,58
2018-03-18T22:49:39.753Z,59
2018-03-18T22:55:06.816Z,59
2018-03-18T23:00:34.528Z,59
2018-03-18T23:06:01.479Z,59
2018-03-18T23:11:28.323Z,59
2018-03-18T23:16:56.242Z,59
2018-03-18T23:22:23.066Z,60
2018-03-18T23:27:49.972Z,60
2018-03-18T23:33:16.807Z,60
2018-03-18T23:38:43.682Z,60
2018-03-18T23:44:10.757Z,60
2018-03-18T23:49:37.453Z,60
2018-03-18T23:55:04.302Z,60
